createdAt,value
2018-03-29T00:02:23.550Z,2.73
2018-03-29T00:04:51.004Z,2.70
2018-03-29T00:07:18.469Z,2.70
2018-03-29T00:09:45.898Z,2.90
2018-03-29T00:12:13.386Z,2.80
2018-03-29T00:14:40.828Z,2.90
2018-03-29T00:17:08.878Z,2.47
2018-03-29T00:19:36.313Z,5.10
2018-03-29T00:22:04.531Z,3.40
2018-03-29T00:24:31.980Z,2.53
2018-03-29T00:26:59.429Z,2.73
2018-03-29T00:29:26.880Z,4.23
2018-03-29T00:31:54.348Z,3.10
2018-03-29T00:34:21.804Z,3.00
2018-03-29T00:36:49.262Z,3.40
2018-03-29T00:39:16.706Z,3.80
2018-03-29T00:41:44.144Z,3.03
2018-03-29T00:44:12.362Z,3.17
2018-03-29T00:46:39.798Z,3.03
2018-03-29T00:49:07.256Z,3.10
2018-03-29T00:51:34.705Z,3.40
2018-03-29T00:54:02.170Z,3.22
2018-03-29T00:56:29.610Z,3.30
2018-03-29T00:58:57.820Z,3.40
2018-03-29T01:01:25.265Z,3.20
2018-03-29T01:03:52.725Z,3.50
2018-03-29T01:06:20.164Z,3.23
2018-03-29T01:08:47.641Z,3.30
2018-03-29T01:11:15.084Z,3.70
2018-03-29T01:13:42.542Z,3.30
2018-03-29T01:16:10.004Z,3.45
2018-03-29T01:18:37.460Z,4.40
2018-03-29T01:21:04.915Z,3.27
2018-03-29T01:23:32.415Z,3.80
2018-03-29T01:25:59.861Z,3.53
2018-03-29T01:28:27.603Z,5.90
2018-03-29T01:30:55.056Z,4.23
2018-03-29T01:33:22.508Z,4.53
2018-03-29T01:35:49.962Z,3.60
2018-03-29T01:38:17.417Z,3.10
2018-03-29T01:40:44.889Z,3.70
2018-03-29T01:43:12.347Z,3.53
2018-03-29T01:45:39.785Z,3.50
2018-03-29T01:48:13.022Z,3.60
2018-03-29T01:50:40.467Z,3.73
2018-03-29T01:53:07.912Z,3.80
2018-03-29T01:55:36.120Z,4.00
2018-03-29T01:58:04.332Z,3.90
2018-03-29T02:00:32.552Z,4.07
2018-03-29T02:02:59.998Z,3.93
2018-03-29T02:05:28.560Z,3.50
2018-03-29T02:07:56.018Z,4.00
2018-03-29T02:10:23.467Z,3.90
2018-03-29T02:12:50.912Z,3.60
2018-03-29T02:15:19.128Z,3.50
2018-03-29T02:17:46.577Z,3.60
2018-03-29T02:20:14.182Z,3.70
2018-03-29T02:22:41.634Z,6.23
2018-03-29T02:25:10.606Z,3.33
2018-03-29T02:27:38.051Z,3.53
2018-03-29T02:30:05.501Z,3.57
2018-03-29T02:32:32.942Z,3.20
2018-03-29T02:35:00.389Z,3.23
2018-03-29T02:37:28.608Z,3.03
2018-03-29T02:39:56.060Z,7.60
2018-03-29T02:42:23.518Z,3.00
2018-03-29T02:44:50.976Z,3.83
2018-03-29T02:47:18.455Z,3.73
2018-03-29T02:49:45.908Z,4.30
2018-03-29T02:52:13.396Z,4.50
2018-03-29T02:54:41.603Z,5.70
2018-03-29T02:57:09.053Z,7.07
2018-03-29T02:59:36.619Z,6.70
2018-03-29T03:02:04.078Z,3.93
2018-03-29T03:04:31.536Z,3.90
2018-03-29T03:06:59.023Z,3.73
2018-03-29T03:09:26.470Z,4.10
2018-03-29T03:11:54.094Z,3.77
2018-03-29T03:14:21.528Z,3.53
2018-03-29T03:16:49.741Z,4.33
2018-03-29T03:19:17.190Z,4.27
2018-03-29T03:21:44.662Z,3.30
2018-03-29T03:24:12.104Z,3.20
2018-03-29T03:26:39.599Z,4.97
2018-03-29T03:29:07.049Z,3.50
2018-03-29T03:31:34.494Z,5.57
2018-03-29T03:34:01.938Z,3.60
2018-03-29T03:36:29.387Z,3.60
2018-03-29T03:38:56.894Z,4.33
2018-03-29T03:41:24.348Z,3.97
2018-03-29T03:43:51.801Z,3.10
2018-03-29T03:46:19.243Z,3.30
2018-03-29T03:48:46.681Z,4.87
2018-03-29T03:51:14.201Z,3.43
2018-03-29T03:53:41.672Z,4.00
2018-03-29T03:56:09.884Z,3.10
2018-03-29T03:58:37.334Z,3.57
2018-03-29T04:01:04.813Z,2.92
2018-03-29T04:03:32.249Z,2.80
2018-03-29T04:05:59.700Z,3.13
2018-03-29T04:08:27.143Z,6.47
2018-03-29T04:10:54.598Z,5.17
2018-03-29T04:13:22.815Z,7.23
2018-03-29T04:15:50.267Z,6.33
2018-03-29T04:18:17.731Z,5.60
2018-03-29T04:20:45.208Z,4.07
2018-03-29T04:23:13.424Z,4.20
2018-03-29T04:25:40.872Z,5.80
2018-03-29T04:28:09.109Z,3.33
2018-03-29T04:30:36.545Z,3.83
2018-03-29T04:33:03.986Z,3.20
2018-03-29T04:35:31.697Z,3.23
2018-03-29T04:38:00.813Z,3.63
2018-03-29T04:40:29.045Z,4.20
2018-03-29T04:42:56.505Z,3.40
2018-03-29T04:45:23.961Z,6.15
2018-03-29T04:47:51.414Z,3.37
2018-03-29T04:50:18.856Z,4.17
2018-03-29T04:52:46.310Z,3.93
2018-03-29T04:55:13.752Z,3.67
2018-03-29T04:57:41.213Z,6.07
2018-03-29T05:00:08.675Z,4.03
2018-03-29T05:02:36.130Z,3.90
2018-03-29T05:05:03.580Z,4.83
2018-03-29T05:07:31.047Z,3.63
2018-03-29T05:09:58.504Z,3.50
2018-03-29T05:12:25.941Z,4.70
2018-03-29T05:14:54.153Z,3.80
2018-03-29T05:17:22.168Z,3.73
2018-03-29T05:19:49.616Z,6.70
2018-03-29T05:22:17.077Z,7.47
2018-03-29T05:24:44.516Z,5.70
2018-03-29T05:27:17.589Z,5.60
2018-03-29T05:29:45.027Z,7.60
2018-03-29T05:32:12.468Z,6.97
2018-03-29T05:34:39.923Z,5.70
2018-03-29T05:37:07.386Z,4.83
2018-03-29T05:39:34.837Z,5.00
2018-03-29T05:42:02.465Z,4.20
2018-03-29T05:44:29.961Z,5.00
2018-03-29T05:46:57.449Z,6.50
2018-03-29T05:49:24.884Z,5.30
2018-03-29T05:51:52.338Z,4.53
2018-03-29T05:54:19.774Z,4.73
2018-03-29T05:56:47.996Z,4.50
2018-03-29T05:59:15.453Z,4.57
2018-03-29T06:01:42.917Z,5.23
2018-03-29T06:04:10.364Z,5.20
2018-03-29T06:06:37.811Z,4.37
2018-03-29T06:09:06.094Z,4.53
2018-03-29T06:11:33.527Z,4.53
2018-03-29T06:14:06.953Z,4.20
2018-03-29T06:16:40.048Z,4.67
2018-03-29T06:19:09.443Z,4.57
2018-03-29T06:21:36.912Z,4.67
2018-03-29T06:24:04.372Z,9.97
2018-03-29T06:26:31.820Z,4.70
2018-03-29T06:28:59.284Z,5.90
2018-03-29T06:31:26.739Z,8.07
2018-03-29T06:33:54.194Z,5.80
2018-03-29T06:36:21.637Z,6.03
2018-03-29T06:38:49.104Z,13.23
2018-03-29T06:41:16.557Z,9.23
2018-03-29T06:43:44.027Z,4.27
2018-03-29T06:46:11.465Z,8.17
2018-03-29T06:48:38.908Z,6.60
2018-03-29T06:51:06.353Z,8.27
2018-03-29T06:53:34.572Z,4.80
2018-03-29T06:56:02.029Z,6.77
2018-03-29T06:58:29.479Z,6.10
2018-03-29T07:00:56.932Z,9.53
2018-03-29T07:03:24.375Z,6.33
2018-03-29T07:05:51.819Z,4.80
2018-03-29T07:08:19.281Z,4.23
2018-03-29T07:10:46.720Z,4.50
2018-03-29T07:13:14.933Z,4.20
2018-03-29T07:15:42.403Z,4.30
2018-03-29T07:18:11.088Z,3.60
2018-03-29T07:20:38.536Z,3.70
2018-03-29T07:23:05.985Z,3.90
2018-03-29T07:25:33.440Z,4.20
2018-03-29T07:28:00.893Z,8.70
2018-03-29T07:30:28.342Z,3.50
2018-03-29T07:32:55.786Z,3.87
2018-03-29T07:35:23.236Z,3.10
2018-03-29T07:37:51.462Z,4.27
2018-03-29T07:40:19.940Z,4.50
2018-03-29T07:42:47.388Z,3.73
2018-03-29T07:45:14.832Z,4.90
2018-03-29T07:47:42.285Z,3.73
2018-03-29T07:50:09.752Z,3.00
2018-03-29T07:52:37.244Z,5.57
2018-03-29T07:55:04.703Z,3.63
2018-03-29T07:57:32.145Z,3.90
2018-03-29T07:59:59.608Z,3.43
2018-03-29T08:02:27.042Z,4.10
2018-03-29T08:04:54.517Z,4.33
2018-03-29T08:07:21.984Z,4.50
2018-03-29T08:09:49.447Z,4.07
2018-03-29T08:12:16.888Z,3.17
2018-03-29T08:14:44.340Z,4.28
2018-03-29T08:17:11.805Z,4.23
2018-03-29T08:19:39.249Z,4.37
2018-03-29T08:22:06.697Z,4.10
2018-03-29T08:24:34.140Z,3.10
2018-03-29T08:27:01.612Z,4.30
2018-03-29T08:29:29.064Z,3.27
2018-03-29T08:31:56.569Z,5.97
2018-03-29T08:34:24.052Z,16.47
2018-03-29T08:36:52.277Z,4.05
2018-03-29T08:39:19.749Z,4.13
2018-03-29T08:41:47.202Z,5.00
2018-03-29T08:44:14.679Z,3.17
2018-03-29T08:46:42.111Z,3.20
2018-03-29T08:49:09.573Z,3.50
2018-03-29T08:51:37.015Z,4.27
2018-03-29T08:54:04.465Z,4.23
2018-03-29T08:56:31.908Z,3.47
2018-03-29T08:58:59.347Z,4.18
2018-03-29T09:01:26.801Z,3.67
2018-03-29T09:03:54.241Z,5.43
2018-03-29T09:06:22.460Z,3.30
2018-03-29T09:08:49.908Z,2.90
2018-03-29T09:11:17.521Z,3.50
2018-03-29T09:13:44.979Z,3.53
2018-03-29T09:16:13.187Z,3.40
2018-03-29T09:18:40.867Z,3.73
2018-03-29T09:21:08.524Z,2.53
2018-03-29T09:23:35.957Z,2.67
2018-03-29T09:26:04.199Z,3.90
2018-03-29T09:28:31.682Z,3.77
2018-03-29T09:30:59.906Z,3.13
2018-03-29T09:33:27.472Z,2.53
2018-03-29T09:35:54.935Z,2.93
2018-03-29T09:38:22.388Z,3.20
2018-03-29T09:40:49.846Z,2.60
2018-03-29T09:43:17.283Z,2.70
2018-03-29T09:45:44.736Z,3.07
2018-03-29T09:48:12.188Z,3.67
2018-03-29T09:50:39.636Z,4.33
2018-03-29T09:53:07.221Z,3.60
2018-03-29T09:55:34.690Z,3.53
2018-03-29T09:58:02.136Z,3.93
2018-03-29T10:00:35.421Z,3.07
2018-03-29T10:03:09.329Z,4.20
2018-03-29T10:05:37.699Z,2.20
2018-03-29T10:08:05.212Z,2.00
2018-03-29T10:10:32.692Z,2.03
2018-03-29T10:13:00.928Z,2.00
2018-03-29T10:15:28.375Z,2.70
2018-03-29T10:17:55.825Z,2.33
2018-03-29T10:20:23.279Z,3.20
2018-03-29T10:22:50.727Z,2.43
2018-03-29T10:25:18.183Z,2.67
2018-03-29T10:27:45.637Z,2.78
2018-03-29T10:30:13.122Z,2.60
2018-03-29T10:32:40.563Z,2.40
2018-03-29T10:35:08.086Z,2.60
2018-03-29T10:37:36.305Z,2.50
2018-03-29T10:40:03.758Z,2.13
2018-03-29T10:42:31.216Z,2.70
2018-03-29T10:44:58.689Z,3.00
2018-03-29T10:47:26.151Z,2.75
2018-03-29T10:49:53.586Z,2.37
2018-03-29T10:52:21.046Z,2.83
2018-03-29T10:54:48.487Z,2.80
2018-03-29T10:57:15.930Z,2.77
2018-03-29T10:59:43.377Z,2.63
2018-03-29T11:02:11.604Z,2.10
2018-03-29T11:04:39.063Z,2.33
2018-03-29T11:07:06.522Z,2.10
2018-03-29T11:09:33.964Z,2.03
2018-03-29T11:12:01.425Z,2.07
2018-03-29T11:14:28.872Z,2.50
2018-03-29T11:16:56.360Z,1.87
2018-03-29T11:19:23.796Z,4.90
2018-03-29T11:21:51.261Z,1.70
2018-03-29T11:24:18.827Z,2.10
2018-03-29T11:26:46.288Z,1.90
2018-03-29T11:29:13.746Z,3.10
2018-03-29T11:31:41.257Z,3.50
2018-03-29T11:34:08.706Z,3.40
2018-03-29T11:36:36.920Z,4.37
2018-03-29T11:39:04.374Z,4.83
2018-03-29T11:41:33.759Z,3.27
2018-03-29T11:44:01.237Z,2.87
2018-03-29T11:46:28.662Z,7.67
2018-03-29T11:48:56.122Z,4.00
2018-03-29T11:51:23.569Z,3.50
2018-03-29T11:53:51.014Z,3.83
2018-03-29T11:56:19.231Z,3.33
2018-03-29T11:58:46.685Z,2.90
2018-03-29T12:01:14.140Z,2.80
2018-03-29T12:03:41.609Z,3.37
2018-03-29T12:06:09.066Z,3.08
2018-03-29T12:08:36.527Z,2.20
2018-03-29T12:11:03.979Z,2.67
2018-03-29T12:13:31.448Z,2.17
2018-03-29T12:15:58.893Z,2.60
2018-03-29T12:18:26.362Z,2.70
2018-03-29T12:20:53.812Z,3.10
2018-03-29T12:23:21.270Z,5.20
2018-03-29T12:25:48.721Z,2.53
2018-03-29T12:28:16.180Z,3.27
2018-03-29T12:30:43.645Z,2.40
2018-03-29T12:33:11.099Z,5.23
2018-03-29T12:35:38.537Z,2.80
2018-03-29T12:38:06.010Z,4.10
2018-03-29T12:40:33.464Z,5.10
2018-03-29T12:43:00.927Z,1.93
2018-03-29T12:45:28.375Z,2.95
2018-03-29T12:47:55.832Z,1.90
2018-03-29T12:50:23.336Z,2.30
2018-03-29T12:52:50.758Z,2.00
2018-03-29T12:55:30.067Z,1.63
2018-03-29T12:58:08.525Z,1.90
2018-03-29T13:00:35.975Z,2.03
2018-03-29T13:03:03.420Z,4.67
2018-03-29T13:05:30.868Z,8.33
2018-03-29T13:07:58.325Z,3.67
2018-03-29T13:10:27.112Z,3.53
2018-03-29T13:12:55.493Z,5.23
2018-03-29T13:15:22.938Z,5.17
2018-03-29T13:17:50.395Z,8.73
2018-03-29T13:20:26.015Z,4.50
2018-03-29T13:22:54.238Z,4.30
2018-03-29T13:25:21.694Z,8.20
2018-03-29T13:27:49.156Z,4.73
2018-03-29T13:30:18.153Z,4.05
2018-03-29T13:32:45.611Z,6.23
2018-03-29T13:35:13.104Z,4.70
2018-03-29T13:37:41.320Z,3.20
2018-03-29T13:40:08.774Z,2.90
2018-03-29T13:42:36.295Z,3.35
2018-03-29T13:45:03.686Z,3.70
2018-03-29T13:47:31.139Z,3.23
2018-03-29T13:49:58.585Z,4.13
2018-03-29T13:52:26.508Z,2.50
2018-03-29T13:54:54.724Z,4.10
2018-03-29T13:57:22.173Z,4.07
2018-03-29T13:59:50.390Z,4.17
2018-03-29T14:02:17.833Z,4.43
2018-03-29T14:04:45.324Z,2.60
2018-03-29T14:07:12.772Z,2.77
2018-03-29T14:09:40.219Z,3.47
2018-03-29T14:12:07.671Z,2.87
2018-03-29T14:14:35.136Z,2.53
2018-03-29T14:17:02.592Z,2.70
2018-03-29T14:19:30.044Z,3.57
2018-03-29T14:21:57.483Z,4.67
2018-03-29T14:24:24.924Z,2.60
2018-03-29T14:26:52.377Z,2.65
2018-03-29T14:29:20.593Z,4.10
2018-03-29T14:31:48.089Z,2.40
2018-03-29T14:34:17.057Z,1.90
2018-03-29T14:36:45.454Z,3.00
2018-03-29T14:39:13.669Z,4.13
2018-03-29T14:41:41.117Z,2.13
2018-03-29T14:44:08.572Z,2.23
2018-03-29T14:46:36.796Z,2.20
2018-03-29T14:49:04.252Z,2.53
2018-03-29T14:51:31.706Z,2.87
2018-03-29T14:53:59.168Z,3.40
2018-03-29T14:56:26.692Z,2.10
2018-03-29T14:58:54.166Z,2.60
2018-03-29T15:01:21.635Z,2.70
2018-03-29T15:03:49.080Z,2.20
2018-03-29T15:06:16.534Z,1.90
2018-03-29T15:08:43.989Z,2.17
2018-03-29T15:11:11.444Z,2.20
2018-03-29T15:13:38.932Z,3.23
2018-03-29T15:16:06.340Z,3.30
2018-03-29T15:18:34.795Z,4.30
2018-03-29T15:21:02.244Z,4.70
2018-03-29T15:23:29.684Z,2.37
2018-03-29T15:25:57.128Z,2.60
2018-03-29T15:28:24.564Z,2.20
2018-03-29T15:30:52.007Z,2.80
2018-03-29T15:33:19.473Z,4.17
2018-03-29T15:35:46.960Z,5.73
2018-03-29T15:38:14.396Z,2.60
2018-03-29T15:40:42.623Z,3.70
2018-03-29T15:43:10.072Z,3.87
2018-03-29T15:45:37.526Z,2.97
2018-03-29T15:48:04.977Z,2.10
2018-03-29T15:50:32.432Z,2.63
2018-03-29T15:52:59.882Z,2.43
2018-03-29T15:55:27.335Z,2.20
2018-03-29T15:57:54.789Z,3.00
2018-03-29T16:00:22.236Z,2.80
2018-03-29T16:02:49.681Z,4.73
2018-03-29T16:05:18.364Z,3.20
2018-03-29T16:07:45.810Z,2.50
2018-03-29T16:10:14.031Z,2.10
2018-03-29T16:12:41.532Z,3.20
2018-03-29T16:15:09.462Z,2.10
2018-03-29T16:17:36.899Z,1.80
2018-03-29T16:20:04.370Z,8.70
2018-03-29T16:22:31.808Z,3.00
2018-03-29T16:24:59.257Z,2.47
2018-03-29T16:27:26.748Z,3.33
2018-03-29T16:29:54.198Z,5.27
2018-03-29T16:32:21.644Z,3.07
2018-03-29T16:34:49.105Z,2.70
2018-03-29T16:37:16.558Z,3.03
2018-03-29T16:39:43.994Z,3.50
2018-03-29T16:42:11.441Z,2.42
2018-03-29T16:44:38.888Z,2.80
2018-03-29T16:47:07.191Z,3.00
2018-03-29T16:49:34.632Z,2.00
2018-03-29T16:52:02.091Z,2.90
2018-03-29T16:54:29.532Z,2.17
2018-03-29T16:56:57.764Z,1.90
2018-03-29T16:59:25.265Z,2.13
2018-03-29T17:01:52.695Z,2.03
2018-03-29T17:04:20.153Z,2.00
2018-03-29T17:06:49.126Z,10.50
2018-03-29T17:09:16.580Z,7.40
2018-03-29T17:11:44.019Z,9.27
2018-03-29T17:14:11.464Z,4.20
2018-03-29T17:16:38.908Z,5.00
2018-03-29T17:19:07.147Z,3.00
2018-03-29T17:21:34.605Z,31.23
2018-03-29T17:24:02.067Z,6.20
2018-03-29T17:26:31.023Z,22.63
2018-03-29T17:28:58.515Z,4.80
2018-03-29T17:31:25.935Z,4.40
2018-03-29T17:33:53.382Z,7.17
2018-03-29T17:36:21.693Z,2.53
2018-03-29T17:38:49.132Z,1.97
2018-03-29T17:41:16.651Z,2.97
2018-03-29T17:43:44.024Z,3.63
2018-03-29T17:46:11.477Z,2.30
2018-03-29T17:48:38.930Z,2.90
2018-03-29T17:51:06.380Z,2.10
2018-03-29T17:53:34.640Z,1.83
2018-03-29T17:56:02.099Z,2.77
2018-03-29T17:58:30.313Z,3.63
2018-03-29T18:00:57.769Z,3.77
2018-03-29T18:03:25.225Z,4.33
2018-03-29T18:05:52.675Z,6.07
2018-03-29T18:08:20.141Z,6.78
2018-03-29T18:10:47.594Z,8.80
2018-03-29T18:13:15.049Z,6.23
2018-03-29T18:15:42.489Z,6.93
2018-03-29T18:18:10.897Z,8.10
2018-03-29T18:20:38.361Z,5.77
2018-03-29T18:23:05.897Z,3.47
2018-03-29T18:25:33.376Z,5.27
2018-03-29T18:28:00.838Z,7.13
2018-03-29T18:30:28.301Z,10.48
2018-03-29T18:32:55.770Z,10.80
2018-03-29T18:35:23.407Z,8.60
2018-03-29T18:37:50.868Z,9.97
2018-03-29T18:40:18.332Z,17.20
2018-03-29T18:42:45.801Z,12.83
2018-03-29T18:45:13.277Z,15.30
2018-03-29T18:47:42.269Z,21.07
2018-03-29T18:50:09.739Z,15.68
2018-03-29T18:52:37.194Z,8.80
2018-03-29T18:55:05.429Z,9.23
2018-03-29T18:57:32.926Z,11.97
2018-03-29T19:00:00.381Z,11.97
2018-03-29T19:02:29.369Z,17.10
2018-03-29T19:04:56.928Z,19.77
2018-03-29T19:07:24.398Z,17.60
2018-03-29T19:09:52.644Z,14.63
2018-03-29T19:12:20.094Z,17.33
2018-03-29T19:14:47.560Z,17.27
2018-03-29T19:17:15.033Z,14.47
2018-03-29T19:19:42.496Z,11.97
2018-03-29T19:22:09.962Z,10.17
2018-03-29T19:24:37.417Z,7.90
2018-03-29T19:27:04.877Z,17.73
2018-03-29T19:29:32.342Z,11.43
2018-03-29T19:32:00.563Z,13.97
2018-03-29T19:34:28.053Z,12.97
2018-03-29T19:36:56.285Z,9.90
2018-03-29T19:39:23.755Z,10.30
2018-03-29T19:41:51.204Z,11.97
2018-03-29T19:44:18.692Z,22.27
2018-03-29T19:46:46.160Z,30.30
2018-03-29T19:49:13.619Z,40.13
2018-03-29T19:51:41.076Z,29.00
2018-03-29T19:54:08.544Z,20.23
2018-03-29T19:56:35.995Z,11.83
2018-03-29T19:59:03.468Z,11.17
2018-03-29T20:01:31.697Z,14.63
2018-03-29T20:03:59.151Z,19.13
2018-03-29T20:06:26.638Z,16.07
2018-03-29T20:08:54.154Z,17.90
2018-03-29T20:11:21.639Z,22.47
2018-03-29T20:13:49.132Z,29.40
2018-03-29T20:16:17.367Z,27.60
2018-03-29T20:18:44.843Z,8.97
2018-03-29T20:21:29.712Z,20.90
2018-03-29T20:23:57.175Z,22.70
2018-03-29T20:26:24.644Z,19.80
2018-03-29T20:28:52.874Z,17.57
2018-03-29T20:31:20.364Z,18.45
2018-03-29T20:33:47.828Z,14.13
2018-03-29T20:36:16.057Z,19.03
2018-03-29T20:38:43.773Z,14.87
2018-03-29T20:41:11.999Z,11.90
2018-03-29T20:43:39.460Z,13.90
2018-03-29T20:46:06.940Z,12.70
2018-03-29T20:48:34.400Z,10.37
2018-03-29T20:51:07.704Z,11.40
2018-03-29T20:53:35.168Z,9.33
2018-03-29T20:56:03.392Z,7.93
2018-03-29T20:58:30.849Z,10.33
2018-03-29T21:00:58.314Z,9.70
2018-03-29T21:03:25.757Z,7.67
2018-03-29T21:05:53.222Z,8.40
2018-03-29T21:08:20.673Z,11.90
2018-03-29T21:10:48.120Z,7.27
2018-03-29T21:13:15.555Z,6.10
2018-03-29T21:15:43.004Z,7.13
2018-03-29T21:18:11.224Z,7.17
2018-03-29T21:20:38.681Z,5.67
2018-03-29T21:23:06.128Z,10.07
2018-03-29T21:25:34.350Z,9.50
2018-03-29T21:28:03.297Z,9.20
2018-03-29T21:30:30.760Z,9.90
2018-03-29T21:32:58.275Z,10.27
2018-03-29T21:35:25.814Z,11.40
2018-03-29T21:37:53.260Z,11.87
2018-03-29T21:40:20.725Z,14.13
2018-03-29T21:42:48.180Z,18.60
2018-03-29T21:45:15.665Z,20.07
2018-03-29T21:47:43.888Z,17.25
2018-03-29T21:50:11.352Z,19.80
2018-03-29T21:52:38.805Z,26.20
2018-03-29T21:55:06.271Z,29.10
2018-03-29T21:57:33.716Z,23.10
2018-03-29T22:00:01.164Z,21.23
2018-03-29T22:02:28.625Z,23.97
2018-03-29T22:04:56.076Z,21.93
2018-03-29T22:07:23.532Z,17.57
2018-03-29T22:09:50.985Z,10.20
2018-03-29T22:12:18.457Z,9.50
2018-03-29T22:14:45.917Z,18.03
2018-03-29T22:17:13.372Z,18.77
2018-03-29T22:19:40.825Z,17.37
2018-03-29T22:22:08.314Z,21.27
2018-03-29T22:24:35.776Z,27.20
2018-03-29T22:27:04.224Z,39.83
2018-03-29T22:29:31.694Z,39.20
2018-03-29T22:31:59.139Z,41.35
2018-03-29T22:34:26.625Z,27.33
2018-03-29T22:36:54.072Z,14.40
2018-03-29T22:39:21.525Z,9.13
2018-03-29T22:41:48.976Z,8.90
2018-03-29T22:44:16.424Z,8.27
2018-03-29T22:46:43.873Z,7.53
2018-03-29T22:49:11.339Z,7.40
2018-03-29T22:51:38.791Z,5.70
2018-03-29T22:54:06.244Z,6.30
2018-03-29T22:56:33.701Z,7.10
2018-03-29T22:59:01.148Z,10.50
2018-03-29T23:01:28.637Z,7.27
2018-03-29T23:03:56.563Z,10.45
2018-03-29T23:06:24.032Z,8.37
2018-03-29T23:08:52.260Z,10.73
2018-03-29T23:11:19.712Z,12.27
2018-03-29T23:13:47.167Z,14.20
2018-03-29T23:16:14.624Z,18.77
2018-03-29T23:18:42.076Z,18.27
2018-03-29T23:21:09.580Z,13.33
2018-03-29T23:23:37.019Z,12.73
2018-03-29T23:26:05.233Z,15.07
2018-03-29T23:28:32.713Z,12.60
2018-03-29T23:31:00.185Z,13.43
2018-03-29T23:33:27.640Z,14.13
2018-03-29T23:35:55.093Z,13.33
2018-03-29T23:38:22.566Z,12.13
2018-03-29T23:40:50.017Z,10.03
2018-03-29T23:43:18.236Z,11.03
2018-03-29T23:45:45.688Z,11.53
2018-03-29T23:48:14.192Z,12.43
2018-03-29T23:50:41.647Z,13.73
2018-03-29T23:53:09.108Z,18.07
2018-03-29T23:55:36.547Z,14.70
2018-03-29T23:58:16.036Z,17.23
